TJNR/NRR METAR and TAF weather

Enter ICAO airport designator
Station Type Date Time Source
TJNR METAR 2019/11/15 04:53 UTC NOAA

TJNR 150453Z AUTO 05007KT 10SM SCT027 27/22 A2997 RMK AO2 SLP147 T02720222


Station Type Date Time Source
TJNR Decoded METAR 2019/11/15 04:53 UTC NOAA

ROOSEVELT ROADS PUERTO RICO, PR, United States (TJNR) 18-15N 65-38W 10M
Nov 14, 2019 - 11:53 PM EST / 2019.11.15 0453 UTC
Wind: from the NE (050 degrees) at 8 MPH (7 KT):0
Visibility: 10 mile(s):0
Sky conditions: partly cloudy
Temperature: 81.0 F (27.2 C)
Dew Point: 72.0 F (22.2 C)
Relative Humidity: 74%
Pressure (altimeter): 29.97 in. Hg (1014 hPa)
ob: TJNR 150453Z AUTO 05007KT 10SM SCT027 27/22 A2997 RMK AO2 SLP147 T02720222
cycle: 5

Station Type Date Time Source
TJNR TAF UTC NOAA

Error!

Example: see airport list